Time;durP1;ratioP1;P1;durP2;ratioP2;P2;SDS_P1;SDS_P2;PMS_P1;PMS_P2;Temp;Humidity;BMP_temperature;BMP_pressure;BME280_temperature;BME280_humidity;BME280_pressure;Samples;Min_cycle;Max_cycle;Signal;HPM_P1;HPM_P2
2023/06/14 00:01:58;;;;;;;4.13;2.38;;;15.30;99.90;;;;;;4129672;28;20090;-67
2023/06/14 00:03:59;;;;;;;5.43;3.50;;;15.30;99.90;;;;;;4130788;28;20030;-70
2023/06/14 00:06:00;;;;;;;5.28;3.17;;;15.30;99.90;;;;;;4129773;28;20502;-68
2023/06/14 00:08:03;;;;;;;5.30;3.30;;;15.30;99.90;;;;;;4130529;28;20101;-70
2023/06/14 00:10:05;;;;;;;3.30;2.80;;;15.30;99.90;;;;;;4129012;28;20092;-67
2023/06/14 00:12:06;;;;;;;5.90;3.05;;;15.20;99.90;;;;;;4130505;28;20026;-70
2023/06/14 00:14:08;;;;;;;7.78;3.25;;;15.20;99.90;;;;;;4129274;28;20026;-68
2023/06/14 00:16:09;;;;;;;5.05;3.58;;;15.10;99.90;;;;;;4130092;28;20439;-69
2023/06/14 00:18:11;;;;;;;5.05;3.00;;;15.10;99.90;;;;;;4128735;28;20096;-67
2023/06/14 00:20:13;;;;;;;4.57;3.47;;;15.00;99.90;;;;;;4130284;28;20046;-70
2023/06/14 00:22:14;;;;;;;8.85;3.53;;;15.00;99.90;;;;;;4128652;28;20584;-67
2023/06/14 00:24:15;;;;;;;4.65;3.28;;;14.90;99.90;;;;;;4130146;28;20019;-62
2023/06/14 00:26:16;;;;;;;4.78;3.33;;;15.00;99.90;;;;;;4129201;28;20503;-69
2023/06/14 00:28:18;;;;;;;4.63;3.15;;;14.90;99.90;;;;;;4129880;28;20034;-65
2023/06/14 00:30:19;;;;;;;4.78;2.92;;;15.00;99.90;;;;;;4129764;28;20120;-65
2023/06/14 00:32:24;;;;;;;7.15;3.00;;;15.00;99.90;;;;;;4129466;28;20034;-69
2023/06/14 00:34:25;;;;;;;4.45;3.05;;;15.00;99.90;;;;;;4129656;28;20054;-67
2023/06/14 00:36:26;;;;;;;4.88;3.80;;;15.00;99.90;;;;;;4127245;28;20446;-65
2023/06/14 00:38:27;;;;;;;4.28;2.50;;;15.00;99.90;;;;;;4130039;28;20034;-64
2023/06/14 00:40:28;;;;;;;2.90;2.60;;;15.00;99.90;;;;;;4128992;28;20040;-66
2023/06/14 00:42:31;;;;;;;5.43;2.67;;;15.00;99.90;;;;;;4130091;28;20100;-66
2023/06/14 00:44:32;;;;;;;4.25;2.70;;;14.90;99.90;;;;;;4128391;28;20558;-62
2023/06/14 00:46:34;;;;;;;4.10;2.33;;;14.90;99.90;;;;;;4129733;28;20085;-67
2023/06/14 00:48:37;;;;;;;3.17;2.58;;;14.90;99.90;;;;;;4128196;28;20042;-67
2023/06/14 00:50:38;;;;;;;4.00;2.50;;;14.80;99.90;;;;;;4129806;28;20042;-68
2023/06/14 00:52:40;;;;;;;3.70;2.13;;;14.80;99.90;;;;;;4128576;28;20089;-68
2023/06/14 00:54:44;;;;;;;3.55;2.67;;;14.80;99.90;;;;;;4129767;28;20106;-69
2023/06/14 00:56:45;;;;;;;4.35;2.70;;;14.80;99.90;;;;;;4129021;28;20038;-67
2023/06/14 00:58:46;;;;;;;3.75;2.30;;;14.80;99.90;;;;;;4129182;28;20096;-71
2023/06/14 01:00:48;;;;;;;3.53;2.47;;;14.80;99.90;;;;;;4128953;28;20034;-67
2023/06/14 01:02:49;;;;;;;3.35;2.42;;;14.80;99.90;;;;;;4128551;28;20038;-70
2023/06/14 01:04:52;;;;;;;3.92;3.38;;;14.70;99.90;;;;;;4129868;28;20038;-63
2023/06/14 01:07:24;;;;;;;4.03;2.47;;;14.70;99.90;;;;;;4128592;28;20030;-67
2023/06/14 01:09:40;;;;;;;5.20;2.72;;;14.70;99.90;;;;;;4128761;28;20120;-66
2023/06/14 01:12:10;;;;;;;7.38;2.42;;;14.80;99.90;;;;;;4129191;28;20065;-68
2023/06/14 01:14:13;;;;;;;3.17;2.80;;;14.80;99.90;;;;;;4118290;28;20042;-69
2023/06/14 01:16:14;;;;;;;4.35;2.65;;;14.70;99.90;;;;;;4129278;28;20566;-67
2023/06/14 01:18:18;;;;;;;7.55;3.08;;;14.70;99.90;;;;;;4128766;28;20521;-66
2023/06/14 01:20:21;;;;;;;4.35;2.63;;;14.70;99.90;;;;;;4128950;28;20030;-68
2023/06/14 01:22:25;;;;;;;3.75;2.50;;;14.70;99.90;;;;;;4128748;28;20069;-69
2023/06/14 01:24:29;;;;;;;2.55;2.35;;;14.70;99.90;;;;;;4128871;28;20034;-71
2023/06/14 01:26:30;;;;;;;6.32;3.03;;;14.60;99.90;;;;;;4129102;28;20437;-69
2023/06/14 01:28:33;;;;;;;2.50;2.30;;;14.60;99.90;;;;;;4128404;28;20034;-69
2023/06/14 01:30:35;;;;;;;5.78;2.58;;;14.60;99.90;;;;;;4128880;28;20042;-66
2023/06/14 01:32:37;;;;;;;6.22;2.72;;;14.60;99.90;;;;;;4127531;28;20030;-71
2023/06/14 01:34:38;;;;;;;5.32;3.03;;;14.50;99.90;;;;;;4129701;28;20085;-64
2023/06/14 01:36:43;;;;;;;3.17;2.30;;;14.60;99.90;;;;;;4128166;28;20447;-67
2023/06/14 01:38:45;;;;;;;3.75;2.53;;;14.60;99.90;;;;;;4128991;28;20042;-69
2023/06/14 01:40:47;;;;;;;5.40;2.97;;;14.50;99.90;;;;;;4127936;28;20085;-66
2023/06/14 01:42:51;;;;;;;6.50;2.50;;;14.60;99.90;;;;;;4129039;28;20081;-63
2023/06/14 01:44:54;;;;;;;5.80;2.80;;;14.50;99.90;;;;;;4128473;28;20038;-66
2023/06/14 01:46:56;;;;;;;3.67;2.88;;;14.60;99.90;;;;;;4128872;28;20093;-70
2023/06/14 01:48:58;;;;;;;2.50;2.30;;;14.60;99.90;;;;;;4127962;28;20038;-68
2023/06/14 01:50:59;;;;;;;6.25;2.60;;;14.60;99.90;;;;;;4129011;28;20085;-68
2023/06/14 01:53:00;;;;;;;3.45;2.65;;;14.60;99.90;;;;;;4128133;28;20030;-70
2023/06/14 01:55:02;;;;;;;5.43;2.83;;;14.60;99.90;;;;;;4128406;28;20042;-64
2023/06/14 01:57:04;;;;;;;2.95;2.40;;;14.60;99.90;;;;;;4128412;28;20438;-68
2023/06/14 01:59:05;;;;;;;4.60;2.97;;;14.60;99.90;;;;;;4129626;28;20089;-62
2023/06/14 02:01:06;;;;;;;7.70;3.28;;;14.60;99.90;;;;;;4132100;28;20027;-61
2023/06/14 02:03:07;;;;;;;5.90;2.53;;;14.60;99.90;;;;;;4131565;28;20818;-62
2023/06/14 02:05:10;;;;;;;8.93;3.67;;;14.60;99.90;;;;;;4132810;28;20034;-61
2023/06/14 02:07:11;;;;;;;6.95;3.28;;;14.60;99.90;;;;;;4131259;28;20446;-67
2023/06/14 02:09:12;;;;;;;6.78;2.67;;;14.60;99.90;;;;;;4132278;28;20046;-62
2023/06/14 02:11:13;;;;;;;2.70;2.15;;;14.50;99.90;;;;;;4131256;28;20042;-69
2023/06/14 02:13:14;;;;;;;3.85;2.70;;;14.50;99.90;;;;;;4132378;28;20056;-66
2023/06/14 02:15:19;;;;;;;2.88;2.67;;;14.50;99.90;;;;;;4131129;28;20046;-70
2023/06/14 02:17:20;;;;;;;9.13;4.30;;;14.50;99.90;;;;;;4132535;28;20117;-69
2023/06/14 02:19:21;;;;;;;10.93;3.60;;;14.50;99.90;;;;;;4131173;28;20080;-70
2023/06/14 02:21:22;;;;;;;8.05;3.80;;;14.50;99.90;;;;;;4131874;28;20038;-70
2023/06/14 02:23:24;;;;;;;5.05;2.90;;;14.40;99.90;;;;;;4131024;28;20031;-70
2023/06/14 02:25:27;;;;;;;3.90;2.50;;;14.40;99.90;;;;;;4131702;28;20451;-67
2023/06/14 02:27:28;;;;;;;4.72;2.53;;;14.40;99.90;;;;;;4131332;28;20026;-62
2023/06/14 02:29:29;;;;;;;3.60;2.60;;;14.40;99.90;;;;;;4131343;28;20046;-60
2023/06/14 02:31:32;;;;;;;4.60;2.65;;;14.30;99.90;;;;;;4130877;28;20100;-62
2023/06/14 02:33:33;;;;;;;3.70;3.17;;;14.30;99.90;;;;;;4130997;28;20050;-66
2023/06/14 02:35:34;;;;;;;5.80;2.67;;;14.30;99.90;;;;;;4132203;28;20085;-67
2023/06/14 02:37:35;;;;;;;3.42;2.45;;;14.30;99.90;;;;;;4130555;28;20426;-63
2023/06/14 02:39:36;;;;;;;5.93;2.35;;;14.30;99.90;;;;;;4131359;28;20038;-70
2023/06/14 02:41:38;;;;;;;4.63;2.70;;;14.40;99.90;;;;;;4130721;28;20096;-64
2023/06/14 02:43:39;;;;;;;2.55;2.33;;;14.30;99.90;;;;;;4130037;28;20038;-66
2023/06/14 02:45:40;;;;;;;4.28;3.08;;;14.30;99.90;;;;;;4130479;28;20038;-71
2023/06/14 02:47:41;;;;;;;4.43;2.35;;;14.30;99.90;;;;;;4131765;28;20069;-63
2023/06/14 02:49:43;;;;;;;3.13;2.67;;;14.30;99.90;;;;;;4130559;28;20100;-70
2023/06/14 02:51:44;;;;;;;4.70;2.95;;;14.30;99.90;;;;;;4131339;28;20459;-62
2023/06/14 02:53:45;;;;;;;7.40;3.00;;;14.30;99.90;;;;;;4130671;28;20039;-67
2023/06/14 02:55:46;;;;;;;3.13;2.55;;;14.30;99.90;;;;;;4131116;28;20050;-68
2023/06/14 02:57:48;;;;;;;3.95;2.63;;;14.20;99.90;;;;;;4130749;28;20042;-65
2023/06/14 02:59:49;;;;;;;4.63;2.90;;;14.20;99.90;;;;;;4131329;28;20035;-67
2023/06/14 03:01:50;;;;;;;5.18;2.70;;;14.20;99.90;;;;;;4130993;28;20034;-70
2023/06/14 03:03:51;;;;;;;3.30;2.20;;;14.20;99.90;;;;;;4130990;28;20046;-66
2023/06/14 03:05:54;;;;;;;2.58;2.33;;;14.20;99.90;;;;;;4131842;28;20030;-64
2023/06/14 03:07:55;;;;;;;3.33;2.40;;;14.20;99.90;;;;;;4130315;28;20034;-68
2023/06/14 03:09:56;;;;;;;3.90;2.65;;;14.20;99.90;;;;;;4133517;28;20101;-64
2023/06/14 03:11:57;;;;;;;6.60;2.33;;;14.20;99.90;;;;;;4130065;28;20088;-62
2023/06/14 03:14:00;;;;;;;4.85;2.78;;;14.20;99.90;;;;;;4131581;28;20093;-69
2023/06/14 03:16:02;;;;;;;5.50;2.80;;;14.30;99.90;;;;;;4129871;28;20054;-66
2023/06/14 03:18:03;;;;;;;4.40;2.25;;;14.20;99.90;;;;;;4131485;28;20038;-64
2023/06/14 03:20:05;;;;;;;6.38;2.70;;;14.20;99.90;;;;;;4130328;28;20030;-64
2023/06/14 03:22:07;;;;;;;6.03;3.70;;;14.20;99.90;;;;;;4129444;28;20133;-64
2023/06/14 03:24:09;;;;;;;6.68;2.70;;;14.30;99.90;;;;;;4129989;28;20541;-66
2023/06/14 03:26:14;;;;;;;3.35;2.63;;;14.30;99.90;;;;;;4131382;28;20474;-68
2023/06/14 03:28:15;;;;;;;3.42;2.53;;;14.30;99.90;;;;;;4129689;28;20447;-66
2023/06/14 03:30:17;;;;;;;7.22;2.58;;;14.30;99.90;;;;;;4130948;28;20483;-61
2023/06/14 03:32:18;;;;;;;4.63;2.70;;;14.30;99.90;;;;;;4129961;28;20042;-62
2023/06/14 03:34:19;;;;;;;6.30;2.50;;;14.30;99.90;;;;;;4130577;28;20431;-62
2023/06/14 03:36:20;;;;;;;7.30;3.55;;;14.30;99.90;;;;;;4130812;28;20431;-62
2023/06/14 03:38:21;;;;;;;4.78;3.47;;;14.30;99.90;;;;;;4129985;28;20093;-62
2023/06/14 03:40:26;;;;;;;4.57;2.40;;;14.30;99.90;;;;;;4130921;28;20077;-62
2023/06/14 03:42:27;;;;;;;4.60;2.53;;;14.30;99.90;;;;;;4129958;28;20122;-62
2023/06/14 03:44:29;;;;;;;3.10;2.42;;;14.20;99.90;;;;;;4131040;28;20093;-63
2023/06/14 03:46:30;;;;;;;8.27;2.60;;;14.30;99.90;;;;;;4129937;28;20086;-63
2023/06/14 03:48:31;;;;;;;5.05;2.33;;;14.20;99.90;;;;;;4131061;28;20457;-66
2023/06/14 03:50:32;;;;;;;5.25;2.50;;;14.20;99.90;;;;;;4129844;28;20103;-66
2023/06/14 03:52:33;;;;;;;6.18;2.70;;;14.30;99.90;;;;;;4130697;28;20035;-66
2023/06/14 03:54:35;;;;;;;5.25;2.45;;;14.40;99.90;;;;;;4129320;28;20043;-66
2023/06/14 03:56:36;;;;;;;5.43;2.60;;;14.50;99.90;;;;;;4130280;28;20054;-66
2023/06/14 03:58:37;;;;;;;5.85;3.22;;;14.50;99.90;;;;;;4129601;28;20109;-65
2023/06/14 04:00:38;;;;;;;4.32;2.72;;;14.60;99.90;;;;;;4129826;28;20557;-67
2023/06/14 04:02:39;;;;;;;5.90;2.17;;;14.60;99.90;;;;;;4129671;28;20081;-68
2023/06/14 04:04:43;;;;;;;4.28;2.78;;;14.90;99.90;;;;;;4129673;28;20089;-63
2023/06/14 04:06:48;;;;;;;4.35;2.85;;;14.90;99.90;;;;;;4130034;28;20023;-67
2023/06/14 04:08:49;;;;;;;3.70;2.60;;;15.00;99.90;;;;;;4129973;28;20073;-62
2023/06/14 04:10:50;;;;;;;2.58;2.38;;;15.50;99.90;;;;;;4129658;28;20046;-63
2023/06/14 04:12:51;;;;;;;5.45;2.80;;;16.30;99.90;;;;;;4129160;28;20077;-63
2023/06/14 04:14:52;;;;;;;3.72;2.60;;;17.10;99.90;;;;;;4129203;28;20426;-63
2023/06/14 04:16:54;;;;;;;3.47;2.17;;;17.90;99.90;;;;;;4128370;28;20450;-66
2023/06/14 04:18:55;;;;;;;3.78;2.40;;;18.60;99.90;;;;;;4130183;28;20026;-62
2023/06/14 04:20:56;;;;;;;4.05;2.22;;;19.20;99.90;;;;;;4128646;28;20061;-64
2023/06/14 04:23:12;;;;;;;2.92;2.17;;;19.80;99.90;;;;;;4129302;28;20038;-66
2023/06/14 04:25:13;;;;;;;4.15;1.90;;;20.40;99.90;;;;;;4128982;28;20364;-63
2023/06/14 04:27:14;;;;;;;5.95;2.35;;;21.00;99.90;;;;;;4129841;28;20475;-64
2023/06/14 04:29:16;;;;;;;2.70;1.92;;;21.10;99.90;;;;;;4126884;28;20112;-62
2023/06/14 04:31:18;;;;;;;4.18;2.28;;;20.80;99.90;;;;;;4129931;28;20080;-62
2023/06/14 04:33:19;;;;;;;4.88;2.10;;;20.30;99.90;;;;;;4128393;28;20046;-61
2023/06/14 04:35:20;;;;;;;2.53;2.17;;;20.00;99.90;;;;;;4130165;28;20022;-65
2023/06/14 04:37:22;;;;;;;6.95;2.67;;;19.80;99.90;;;;;;4128354;28;20491;-64
2023/06/14 04:39:23;;;;;;;2.75;2.47;;;19.70;99.90;;;;;;4127439;28;20038;-67
2023/06/14 04:41:30;;;;;;;4.80;2.55;;;19.40;99.90;;;;;;4129285;28;20092;-63
2023/06/14 04:43:37;;;;;;;6.28;2.80;;;19.40;99.90;;;;;;4127314;28;20046;-64
2023/06/14 04:45:39;;;;;;;3.55;2.17;;;19.60;99.90;;;;;;4129140;28;20426;-69
2023/06/14 04:47:41;;;;;;;6.57;2.63;;;19.80;99.90;;;;;;4129044;28;20018;-67
2023/06/14 04:49:43;;;;;;;3.80;2.58;;;20.00;99.90;;;;;;4129353;28;20034;-63
2023/06/14 04:51:46;;;;;;;4.88;2.40;;;20.00;99.90;;;;;;4128511;28;20470;-64
2023/06/14 04:53:49;;;;;;;3.42;2.17;;;20.20;99.90;;;;;;4128944;28;20042;-65
2023/06/14 04:55:50;;;;;;;4.63;2.17;;;20.10;99.90;;;;;;4128317;28;20034;-62
2023/06/14 04:57:53;;;;;;;5.28;2.25;;;19.50;99.90;;;;;;4129172;28;20522;-68
2023/06/14 04:59:57;;;;;;;4.90;2.20;;;19.30;99.90;;;;;;4128295;28;20065;-67
2023/06/14 05:01:59;;;;;;;4.55;2.28;;;19.50;99.90;;;;;;4129293;28;20649;-64
2023/06/14 05:04:01;;;;;;;3.95;2.30;;;19.50;99.90;;;;;;4128107;28;20077;-62
2023/06/14 05:06:02;;;;;;;6.55;2.40;;;19.60;99.90;;;;;;4129507;28;20097;-68
2023/06/14 05:08:03;;;;;;;3.13;2.10;;;20.60;99.90;;;;;;4128048;28;20023;-70
2023/06/14 05:10:05;;;;;;;4.47;2.50;;;21.30;99.90;;;;;;4129280;28;20062;-68
2023/06/14 05:12:07;;;;;;;6.43;2.85;;;21.70;99.90;;;;;;4128241;28;20030;-65
2023/06/14 05:14:09;;;;;;;3.72;2.80;;;21.40;99.90;;;;;;4129218;28;20018;-64
2023/06/14 05:16:13;;;;;;;3.53;2.47;;;21.80;99.90;;;;;;4128069;28;20093;-66
2023/06/14 05:18:15;;;;;;;6.18;2.58;;;22.40;99.90;;;;;;4128894;28;20084;-68
2023/06/14 05:20:16;;;;;;;2.45;2.17;;;23.30;99.90;;;;;;4128760;28;20030;-66
2023/06/14 05:22:17;;;;;;;8.30;2.30;;;24.00;99.90;;;;;;4128542;28;20438;-66
2023/06/14 05:24:19;;;;;;;3.70;2.70;;;24.80;99.90;;;;;;4128985;28;20038;-63
2023/06/14 05:26:20;;;;;;;6.22;2.38;;;25.00;99.90;;;;;;4128112;28;20102;-69
2023/06/14 05:28:22;;;;;;;2.65;2.40;;;25.20;99.90;;;;;;4128742;28;20109;-62
2023/06/14 05:30:23;;;;;;;3.60;2.03;;;25.40;99.90;;;;;;4127818;28;20026;-68
2023/06/14 05:32:24;;;;;;;3.85;2.03;;;25.50;99.90;;;;;;4128560;28;20096;-68
2023/06/14 05:34:25;;;;;;;2.47;2.03;;;25.70;99.90;;;;;;4126505;28;20101;-64
2023/06/14 05:36:27;;;;;;;3.67;2.22;;;25.70;99.90;;;;;;4128959;28;20479;-69
2023/06/14 05:38:28;;;;;;;3.78;2.65;;;25.50;99.90;;;;;;4126975;28;20042;-64
2023/06/14 05:40:30;;;;;;;3.67;2.80;;;25.90;99.90;;;;;;4126890;28;20043;-65
2023/06/14 05:42:31;;;;;;;4.88;2.83;;;26.20;99.90;;;;;;4125925;28;20490;-65
2023/06/14 05:44:32;;;;;;;3.75;2.47;;;26.10;99.90;;;;;;4129073;28;20031;-65
2023/06/14 05:46:33;;;;;;;2.80;2.25;;;25.80;99.90;;;;;;4127716;28;20038;-66
2023/06/14 05:48:34;;;;;;;3.72;2.55;;;25.40;99.90;;;;;;4142886;28;20045;-69
2023/06/14 05:50:36;;;;;;;4.18;2.50;;;25.00;99.90;;;;;;4127674;28;20491;-67
2023/06/14 05:52:37;;;;;;;3.42;2.60;;;24.70;99.90;;;;;;4143191;28;20164;-67
2023/06/14 05:54:38;;;;;;;3.00;2.47;;;24.40;99.90;;;;;;4128422;28;20080;-65
2023/06/14 05:56:40;;;;;;;4.70;2.55;;;24.20;99.90;;;;;;4127288;28;20073;-61
2023/06/14 05:58:41;;;;;;;3.95;2.80;;;24.00;99.90;;;;;;4128613;28;20034;-63
2023/06/14 06:00:42;;;;;;;5.53;2.53;;;23.70;99.90;;;;;;4127825;28;20355;-61
2023/06/14 06:02:43;;;;;;;5.38;2.97;;;23.20;99.90;;;;;;4128454;28;20434;-62
2023/06/14 06:04:45;;;;;;;5.75;3.08;;;22.60;99.90;;;;;;4127620;28;20104;-64
2023/06/14 06:06:47;;;;;;;5.60;2.45;;;22.20;99.90;;;;;;4128750;28;20038;-67
2023/06/14 06:08:48;;;;;;;4.18;3.13;;;22.20;99.90;;;;;;4127558;28;20031;-69
2023/06/14 06:10:50;;;;;;;6.03;3.03;;;22.70;99.90;;;;;;4128279;28;20101;-65
2023/06/14 06:12:52;;;;;;;6.03;3.53;;;22.80;99.90;;;;;;4127455;28;20026;-63
2023/06/14 06:14:53;;;;;;;5.60;3.92;;;23.00;99.90;;;;;;4128399;28;20055;-65
2023/06/14 06:16:54;;;;;;;5.70;2.95;;;23.60;99.90;;;;;;4127663;28;20459;-62
2023/06/14 06:18:55;;;;;;;4.47;2.70;;;23.90;99.90;;;;;;4128207;28;20047;-69
2023/06/14 06:20:57;;;;;;;6.15;3.00;;;24.20;99.90;;;;;;4127871;28;20097;-64
2023/06/14 06:22:58;;;;;;;3.33;2.80;;;24.20;99.90;;;;;;4127962;28;20174;-68
2023/06/14 06:25:00;;;;;;;3.75;2.85;;;24.40;99.90;;;;;;4128351;28;20030;-62
2023/06/14 06:27:02;;;;;;;3.75;2.70;;;24.40;99.90;;;;;;4127749;28;20058;-64
2023/06/14 06:29:03;;;;;;;4.43;2.63;;;24.20;99.90;;;;;;4127653;28;20042;-66
2023/06/14 06:31:05;;;;;;;9.02;2.58;;;24.00;99.90;;;;;;4127111;28;20096;-65
2023/06/14 06:33:06;;;;;;;6.28;3.30;;;23.90;99.90;;;;;;4127938;28;20027;-62
2023/06/14 06:35:08;;;;;;;7.22;2.92;;;24.00;99.90;;;;;;4127246;28;20093;-68
2023/06/14 06:37:09;;;;;;;6.47;3.00;;;24.10;99.90;;;;;;4128619;28;20038;-65
2023/06/14 06:39:11;;;;;;;2.40;2.20;;;24.20;99.90;;;;;;4126778;28;20101;-62
2023/06/14 06:41:12;;;;;;;4.22;2.92;;;24.20;99.90;;;;;;4142837;28;20073;-61
2023/06/14 06:43:13;;;;;;;4.50;2.55;;;23.90;99.90;;;;;;4127125;28;20101;-64
2023/06/14 06:45:14;;;;;;;4.65;3.00;;;23.80;99.90;;;;;;4130300;28;20089;-62
2023/06/14 06:47:15;;;;;;;5.45;2.55;;;23.80;99.90;;;;;;4130473;28;20039;-67
2023/06/14 06:49:17;;;;;;;3.50;2.35;;;23.60;99.90;;;;;;4131001;28;20077;-67
2023/06/14 06:51:18;;;;;;;4.13;2.72;;;23.30;99.90;;;;;;4130513;28;20035;-67
2023/06/14 06:53:19;;;;;;;4.88;2.75;;;23.20;99.90;;;;;;4130326;28;20458;-61
2023/06/14 06:55:20;;;;;;;3.67;2.70;;;23.20;99.90;;;;;;4130371;28;20081;-64
2023/06/14 06:57:24;;;;;;;4.63;2.80;;;23.70;99.90;;;;;;4128155;28;20038;-67
2023/06/14 06:59:25;;;;;;;3.33;2.55;;;24.20;99.90;;;;;;4131309;28;20046;-62
2023/06/14 07:01:28;;;;;;;3.95;2.83;;;24.40;99.90;;;;;;4130286;28;20026;-63
2023/06/14 07:03:30;;;;;;;4.95;3.00;;;24.30;99.90;;;;;;4130848;28;20097;-64
2023/06/14 07:05:32;;;;;;;6.50;3.00;;;24.50;99.90;;;;;;4130452;28;20038;-63
2023/06/14 07:07:33;;;;;;;5.65;3.13;;;24.50;99.90;;;;;;4131038;28;20591;-66
2023/06/14 07:09:34;;;;;;;6.32;3.08;;;24.80;99.90;;;;;;4129573;28;20046;-62
2023/06/14 07:11:35;;;;;;;3.60;2.75;;;24.80;99.90;;;;;;4131213;28;20479;-66
2023/06/14 07:13:36;;;;;;;3.50;2.65;;;24.70;99.90;;;;;;4129623;28;20046;-68
2023/06/14 07:15:37;;;;;;;12.63;3.60;;;24.50;99.90;;;;;;4130564;28;20104;-63
2023/06/14 07:17:38;;;;;;;15.70;4.65;;;24.30;99.90;;;;;;4129839;28;20042;-65
2023/06/14 07:19:40;;;;;;;22.73;4.35;;;24.10;99.90;;;;;;4131009;28;20026;-63
2023/06/14 07:21:41;;;;;;;26.17;7.47;;;24.50;99.90;;;;;;4129965;28;20034;-61
2023/06/14 07:23:42;;;;;;;19.02;5.85;;;24.80;99.90;;;;;;4130652;28;20171;-63
2023/06/14 07:25:43;;;;;;;18.20;5.63;;;24.70;99.90;;;;;;4130499;28;20372;-65
2023/06/14 07:27:45;;;;;;;10.25;3.50;;;24.60;99.90;;;;;;4130460;28;20467;-69
2023/06/14 07:29:46;;;;;;;6.63;2.97;;;24.30;99.90;;;;;;4130577;28;20038;-64
2023/06/14 07:31:48;;;;;;;5.47;2.88;;;24.00;99.90;;;;;;4129181;28;20411;-66
2023/06/14 07:33:49;;;;;;;4.30;3.05;;;23.80;99.90;;;;;;4129063;28;20506;-68
2023/06/14 07:35:52;;;;;;;3.00;2.60;;;23.60;99.90;;;;;;4129714;28;20034;-69
2023/06/14 07:37:53;;;;;;;3.28;2.42;;;23.50;99.90;;;;;;4130286;28;20027;-66
2023/06/14 07:39:54;;;;;;;4.22;3.40;;;23.50;99.90;;;;;;4129312;28;20042;-65
2023/06/14 07:41:55;;;;;;;8.90;3.08;;;23.40;99.90;;;;;;4130538;28;20026;-65
2023/06/14 07:43:56;;;;;;;123.70;21.63;;;23.00;99.90;;;;;;4129338;28;20463;-67
2023/06/14 07:45:58;;;;;;;77.53;13.00;;;22.50;99.90;;;;;;4145580;28;20034;-67
2023/06/14 07:47:59;;;;;;;13.88;5.07;;;22.30;99.90;;;;;;4128936;28;20073;-62
2023/06/14 07:50:00;;;;;;;4.72;2.85;;;22.40;99.90;;;;;;4130354;28;20034;-66
2023/06/14 07:52:01;;;;;;;6.00;3.25;;;22.70;99.90;;;;;;4129162;28;20073;-66
2023/06/14 07:54:03;;;;;;;20.33;4.43;;;22.90;99.90;;;;;;4129946;28;20026;-65
2023/06/14 07:56:04;;;;;;;27.90;5.65;;;22.40;99.90;;;;;;4129066;28;20042;-63
2023/06/14 07:58:10;;;;;;;5.97;3.17;;;22.30;99.90;;;;;;4129431;28;20030;-65
2023/06/14 08:00:15;;;;;;;5.40;3.05;;;21.70;99.90;;;;;;4129832;28;20034;-66
2023/06/14 08:02:16;;;;;;;9.98;4.10;;;21.40;99.90;;;;;;4128806;28;20046;-66
2023/06/14 08:04:17;;;;;;;4.22;2.90;;;21.00;99.90;;;;;;4130148;28;20076;-69
2023/06/14 08:06:18;;;;;;;7.10;4.22;;;20.80;99.90;;;;;;4129548;28;20427;-70
2023/06/14 08:08:19;;;;;;;6.32;2.65;;;20.70;99.90;;;;;;4129417;28;20089;-67
2023/06/14 08:10:22;;;;;;;6.13;3.47;;;20.70;99.90;;;;;;4128648;28;20438;-65
2023/06/14 08:12:23;;;;;;;6.30;3.28;;;20.70;99.90;;;;;;4130318;28;20070;-69
2023/06/14 08:14:24;;;;;;;5.90;2.80;;;20.70;99.90;;;;;;4128773;28;20085;-65
2023/06/14 08:16:25;;;;;;;2.95;2.47;;;20.80;99.90;;;;;;4129773;28;20042;-69
2023/06/14 08:18:26;;;;;;;3.25;2.70;;;20.60;99.90;;;;;;4143630;28;20029;-63
2023/06/14 08:20:27;;;;;;;4.10;3.45;;;20.60;99.90;;;;;;4130139;28;20081;-65
2023/06/14 08:22:32;;;;;;;8.57;2.80;;;20.80;99.90;;;;;;4128714;28;20038;-70
2023/06/14 08:24:33;;;;;;;4.72;3.15;;;20.90;99.90;;;;;;4129896;28;20471;-69
2023/06/14 08:26:36;;;;;;;7.57;3.10;;;21.10;99.90;;;;;;4128482;28;20085;-65
2023/06/14 08:28:37;;;;;;;5.13;2.67;;;21.40;99.90;;;;;;4129390;28;20022;-67
2023/06/14 08:30:38;;;;;;;6.63;2.75;;;21.90;99.90;;;;;;4129229;28;20431;-67
2023/06/14 08:32:40;;;;;;;7.15;4.45;;;21.80;99.90;;;;;;4129175;28;20046;-67
2023/06/14 08:34:41;;;;;;;4.35;2.85;;;21.60;99.90;;;;;;4129113;28;20435;-69
2023/06/14 08:36:42;;;;;;;9.48;2.85;;;21.30;99.90;;;;;;4128475;28;20047;-70
2023/06/14 08:38:43;;;;;;;6.88;2.83;;;21.30;99.90;;;;;;4129619;28;20389;-68
2023/06/14 08:40:47;;;;;;;4.68;2.90;;;21.40;99.90;;;;;;4128680;28;20104;-69
2023/06/14 08:42:53;;;;;;;6.78;3.13;;;21.50;99.90;;;;;;4130054;28;20030;-70
2023/06/14 08:44:55;;;;;;;4.68;2.63;;;21.70;99.90;;;;;;4128617;28;20084;-64
2023/06/14 08:46:59;;;;;;;6.53;3.10;;;21.90;99.90;;;;;;4129543;28;20369;-62
2023/06/14 08:49:03;;;;;;;6.82;2.78;;;21.80;99.90;;;;;;4128644;28;20073;-67
2023/06/14 08:51:04;;;;;;;3.80;2.97;;;21.70;99.90;;;;;;4129431;28;20097;-66
2023/06/14 08:53:10;;;;;;;4.93;2.45;;;21.90;99.90;;;;;;4127946;28;20030;-66
2023/06/14 08:55:12;;;;;;;5.30;2.83;;;22.10;99.90;;;;;;4129027;28;20045;-67
2023/06/14 08:57:15;;;;;;;5.10;2.88;;;22.30;99.90;;;;;;4128072;28;20557;-69
2023/06/14 08:59:17;;;;;;;3.38;2.20;;;22.30;99.90;;;;;;4127604;28;20093;-68
2023/06/14 09:01:21;;;;;;;5.70;2.40;;;22.60;99.90;;;;;;4128219;28;20030;-66
2023/06/14 09:03:29;;;;;;;6.45;2.83;;;22.80;99.90;;;;;;4129089;28;20089;-66
2023/06/14 09:05:30;;;;;;;5.80;2.65;;;22.70;99.90;;;;;;4127947;28;20043;-62
2023/06/14 09:07:32;;;;;;;3.67;2.35;;;22.40;99.90;;;;;;4128376;28;20108;-67
2023/06/14 09:09:40;;;;;;;6.15;2.53;;;22.00;99.90;;;;;;4127767;28;20073;-65
2023/06/14 09:11:42;;;;;;;6.82;3.05;;;21.80;99.90;;;;;;4128347;28;20043;-67
2023/06/14 09:13:43;;;;;;;51.90;4.95;;;21.80;99.90;;;;;;4128678;28;20069;-63
2023/06/14 09:15:44;;;;;;;6.22;2.63;;;21.90;99.90;;;;;;4128314;28;20026;-64
2023/06/14 09:17:45;;;;;;;18.33;5.63;;;22.20;99.90;;;;;;4128361;28;20058;-64
2023/06/14 09:19:47;;;;;;;37.65;7.65;;;22.40;99.90;;;;;;4127730;28;20046;-65
2023/06/14 09:21:48;;;;;;;48.20;8.77;;;22.60;99.90;;;;;;4128651;28;20039;-69
2023/06/14 09:23:49;;;;;;;53.42;7.53;;;22.50;99.90;;;;;;4142271;28;20029;-62
2023/06/14 09:25:50;;;;;;;7.65;3.72;;;22.40;99.90;;;;;;4129140;28;20026;-64
2023/06/14 09:27:51;;;;;;;12.00;2.72;;;22.50;99.90;;;;;;4127533;28;20042;-64
2023/06/14 09:29:53;;;;;;;4.03;2.20;;;22.70;99.90;;;;;;4128534;28;20109;-64
2023/06/14 09:31:54;;;;;;;6.07;2.78;;;23.10;99.90;;;;;;4128122;28;20031;-64
2023/06/14 09:33:56;;;;;;;5.90;2.67;;;23.40;99.90;;;;;;4129204;28;20088;-65
2023/06/14 09:35:57;;;;;;;4.13;2.60;;;23.40;99.90;;;;;;4127421;28;20041;-69
2023/06/14 09:37:58;;;;;;;4.88;2.90;;;23.20;99.90;;;;;;4128230;28;20109;-69
2023/06/14 09:40:00;;;;;;;7.82;2.92;;;23.30;99.90;;;;;;4127732;28;20042;-66
2023/06/14 09:42:16;;;;;;;6.10;2.90;;;23.00;99.90;;;;;;4128349;28;20030;-64
2023/06/14 09:44:20;;;;;;;9.70;3.03;;;22.70;99.90;;;;;;4127961;28;20371;-66
2023/06/14 09:46:21;;;;;;;6.30;2.97;;;22.50;99.90;;;;;;4127851;28;20116;-64
2023/06/14 09:48:22;;;;;;;12.93;2.92;;;22.50;99.90;;;;;;4128124;28;20018;-68
2023/06/14 09:50:23;;;;;;;13.98;3.35;;;22.70;99.90;;;;;;4142596;28;20152;-67
2023/06/14 09:52:27;;;;;;;5.70;2.80;;;22.60;99.90;;;;;;4127450;28;20542;-67
2023/06/14 09:54:30;;;;;;;3.83;2.35;;;22.30;99.90;;;;;;4127099;28;20039;-62
2023/06/14 09:56:36;;;;;;;5.50;2.65;;;22.00;99.90;;;;;;4127769;28;20038;-66
2023/06/14 09:58:40;;;;;;;5.90;2.65;;;22.00;99.90;;;;;;4126263;28;20491;-68
2023/06/14 10:00:43;;;;;;;6.80;2.60;;;22.00;99.90;;;;;;4127383;28;20054;-66
2023/06/14 10:02:50;;;;;;;9.07;3.13;;;22.10;99.90;;;;;;4126488;28;20169;-68
2023/06/14 10:05:11;;;;;;;12.93;3.58;;;22.10;99.90;;;;;;4128265;28;20042;-67
2023/06/14 10:07:18;;;;;;;16.08;3.40;;;22.30;99.90;;;;;;4127667;28;20073;-69
2023/06/14 10:09:22;;;;;;;20.23;3.28;;;22.60;99.90;;;;;;4128553;28;20667;-61
2023/06/14 10:11:28;;;;;;;5.13;2.42;;;22.90;99.90;;;;;;4127085;28;20058;-65
2023/06/14 10:13:33;;;;;;;7.43;2.40;;;22.90;99.90;;;;;;4128230;28;20026;-68
2023/06/14 10:15:48;;;;;;;6.80;2.47;;;22.90;99.90;;;;;;4127153;28;20105;-62
2023/06/14 10:17:56;;;;;;;3.67;2.65;;;22.30;99.90;;;;;;4128512;28;20046;-66
2023/06/14 10:20:14;;;;;;;2.85;2.60;;;22.00;99.90;;;;;;4128069;28;20085;-67
2023/06/14 10:22:24;;;;;;;7.53;2.85;;;21.70;99.90;;;;;;4131578;28;20046;-61
2023/06/14 10:24:35;;;;;;;4.55;2.22;;;21.60;99.90;;;;;;4130765;28;20042;-68
2023/06/14 10:26:57;;;;;;;5.32;2.65;;;21.40;99.90;;;;;;4131106;28;20054;-66
2023/06/14 10:29:07;;;;;;;10.40;3.15;;;21.40;99.90;;;;;;4130400;28;20467;-62
2023/06/14 10:31:10;;;;;;;4.35;2.55;;;21.40;99.90;;;;;;4131470;28;20030;-69
2023/06/14 10:33:15;;;;;;;3.90;2.17;;;21.50;99.90;;;;;;4130532;28;20379;-66
2023/06/14 10:35:16;;;;;;;4.97;2.33;;;21.70;99.90;;;;;;4131611;28;20093;-61
2023/06/14 10:37:18;;;;;;;2.78;2.22;;;21.90;99.90;;;;;;4130573;28;20518;-70